Главная страница
METAR-TAF:

METAR-TAF

Аэропорты :

Гран-Канария, Испания

широта: 27-56N, долгота: 015-23W, высота над уровнем моря: 23 м

Текущие метеонаблюдения

Эта сводка был подготовлена 19 минут назад, в 12:00 UTC
Ветер 14 Узел от северо-северо-восточный, изменяющийся между северный и восточно-северо-восточный
Температура 21°C
Влажность 64%
Давление 1027 hPa
Видимость 10 км и более
Нет облачности ниже 1500 м, и нет кучево-дождевой облачности

METAR: GCLP 221200Z 03014KT 360V060 CAVOK 21/14 Q1027 NOSIG

Время: 12:19 (12:19 UTC)

Прогноз

Эта сводка был подготовлена 4 часа и 19 минут назад, в 08:00 UTC
Прогноз действительный с 22-го 09 UTC до 23-го 09 UTC
Ветер 13 Узел от северо-северо-восточный
Видимость 10 км и более
небольшая облачность на высоте 2000 фута

TAF: GCLP 220800Z 2209/2309 02013KT 9999 FEW020 TX23/2214Z TN15/2306Z

Метеонаблюдения и прогнозы для более 4000 аэропортов (сводки METAR и TAF).

Имеющиеся станции представлены на карте желтыми и красными точками.

Чтобы увидеть название станции, наведите на нее мышь.

Затем щелкните, чтобы увидеть метеонаблюдения и метеопрогнозы.

Управление картой: чтобы увеличить масштаб, щелкните зеленые кнопки с черным крестиком; чтобы уменьшить масштаб, щелкните зеленую кнопку с тире; для просмотра соседних карт щелкайте зеленые стрелки.


METAR-TAF: